Time;durP1;ratioP1;P1;durP2;ratioP2;P2;SDS_P1;SDS_P2;PMS_P1;PMS_P2;Temp;Humidity;BMP_temperature;BMP_pressure;BME280_temperature;BME280_humidity;BME280_pressure;Samples;Min_cycle;Max_cycle;Signal;HPM_P1;HPM_P2
2022/09/21 00:01:01;;;;;;;;;;;;;;;7.95;100.00;99159.53;2210017;80;20576;-58
2022/09/21 00:04:04;;;;;;;;;;;;;;;8.05;100.00;99158.66;2177113;79;20127;-58
2022/09/21 00:07:06;;;;;;;;;;;;;;;8.16;100.00;99152.97;2200375;80;20387;-58
2022/09/21 00:10:07;;;;;;;;;;;;;;;8.09;100.00;99152.86;2197241;80;20105;-58
2022/09/21 00:13:10;;;;;;;;;;;;;;;8.04;100.00;99150.90;2203436;80;20194;-58
2022/09/21 00:16:12;;;;;;;;;;;;;;;8.01;100.00;99147.13;2203008;80;20096;-58
2022/09/21 00:19:16;;;;;;;;;;;;;;;8.02;100.00;99148.83;2206005;80;20132;-58
2022/09/21 00:22:16;;;;;;;;;;;;;;;8.01;100.00;99155.80;2188770;80;20380;-59
2022/09/21 00:25:18;;;;;;;;;;;;;;;8.01;100.00;99154.95;2204879;80;20097;-58
2022/09/21 00:28:19;;;;;;;;;;;;;;;8.01;100.00;99158.41;2204635;80;20103;-58
2022/09/21 00:31:21;;;;;;;;;;;;;;;8.03;100.00;99165.73;2207172;80;20097;-58
2022/09/21 00:34:23;;;;;;;;;;;;;;;8.03;100.00;99160.95;2204961;80;20113;-58
2022/09/21 00:37:25;;;;;;;;;;;;;;;8.05;100.00;99169.58;2201034;80;20132;-58
2022/09/21 00:40:26;;;;;;;;;;;;;;;8.06;100.00;99156.45;2203038;80;20116;-57
2022/09/21 00:43:28;;;;;;;;;;;;;;;8.09;100.00;99163.30;2199767;80;20128;-58
2022/09/21 00:46:30;;;;;;;;;;;;;;;8.03;100.00;99164.87;2211706;80;20415;-58
2022/09/21 00:49:31;;;;;;;;;;;;;;;8.06;100.00;99164.28;2206639;80;20112;-58
2022/09/21 00:52:33;;;;;;;;;;;;;;;8.03;100.00;99164.87;2204373;80;20115;-58
2022/09/21 00:55:36;;;;;;;;;;;;;;;8.02;100.00;99162.72;2209753;80;20211;-58
2022/09/21 00:58:39;;;;;;;;;;;;;;;8.05;100.00;99170.89;2205571;80;20390;-58
2022/09/21 01:01:41;;;;;;;;;;;;;;;8.05;100.00;99173.03;2207485;80;20135;-57
2022/09/21 01:04:43;;;;;;;;;;;;;;;8.05;100.00;99172.20;2209572;80;20092;-58
2022/09/21 01:07:45;;;;;;;;;;;;;;;8.05;100.00;99173.50;2207885;80;20101;-57
2022/09/21 01:10:46;;;;;;;;;;;;;;;8.01;100.00;99174.08;2207510;80;20115;-57
2022/09/21 01:13:47;;;;;;;;;;;;;;;7.98;100.00;99173.75;2206339;80;20206;-58
2022/09/21 01:16:49;;;;;;;;;;;;;;;8.00;100.00;99176.30;2207671;80;20194;-58
2022/09/21 01:19:52;;;;;;;;;;;;;;;8.01;100.00;99178.47;2200818;79;20193;-57
2022/09/21 01:22:53;;;;;;;;;;;;;;;7.95;100.00;99173.89;2208510;80;20128;-57
2022/09/21 01:25:55;;;;;;;;;;;;;;;7.98;100.00;99176.84;2207862;80;20398;-57
2022/09/21 01:28:56;;;;;;;;;;;;;;;8.00;100.00;99177.60;2202570;80;20097;-57
2022/09/21 01:31:57;;;;;;;;;;;;;;;8.00;100.00;99175.46;2206939;80;20453;-57
2022/09/21 01:34:59;;;;;;;;;;;;;;;7.86;100.00;99181.28;2200177;80;20096;-58
2022/09/21 01:38:01;;;;;;;;;;;;;;;7.85;100.00;99183.06;2202153;80;20108;-58
2022/09/21 01:41:02;;;;;;;;;;;;;;;7.79;100.00;99180.27;2206857;80;20541;-58
2022/09/21 01:44:07;;;;;;;;;;;;;;;7.76;100.00;99175.64;2205597;80;20152;-58
2022/09/21 01:47:08;;;;;;;;;;;;;;;7.74;100.00;99171.80;2164184;80;20387;-57
2022/09/21 01:50:09;;;;;;;;;;;;;;;7.71;100.00;99170.60;2208616;80;20096;-58
2022/09/21 01:53:10;;;;;;;;;;;;;;;7.64;100.00;99169.17;2206422;80;20104;-58
2022/09/21 01:56:12;;;;;;;;;;;;;;;7.61;100.00;99175.40;2207856;80;20096;-57
2022/09/21 01:59:13;;;;;;;;;;;;;;;7.54;100.00;99176.58;2205163;80;20132;-57
2022/09/21 02:02:15;;;;;;;;;;;;;;;7.48;100.00;99181.20;2211121;80;20093;-56
2022/09/21 02:05:17;;;;;;;;;;;;;;;7.49;100.00;99181.60;2213449;80;20131;-58
2022/09/21 02:08:18;;;;;;;;;;;;;;;7.45;100.00;99192.61;2206544;80;20125;-58
2022/09/21 02:11:20;;;;;;;;;;;;;;;7.41;100.00;99197.13;2201927;80;20112;-58
2022/09/21 02:14:21;;;;;;;;;;;;;;;7.48;100.00;99199.47;2206357;80;20321;-57
2022/09/21 02:17:24;;;;;;;;;;;;;;;7.41;100.00;99198.88;2202799;80;20435;-59
2022/09/21 02:20:26;;;;;;;;;;;;;;;7.36;100.00;99205.59;2206018;80;20132;-58
2022/09/21 02:23:27;;;;;;;;;;;;;;;7.26;100.00;99196.46;2209382;80;20109;-58
2022/09/21 02:26:30;;;;;;;;;;;;;;;7.23;100.00;99205.72;2208674;80;20437;-58
2022/09/21 02:29:32;;;;;;;;;;;;;;;7.19;100.00;99211.97;2209738;80;20387;-58
2022/09/21 02:32:34;;;;;;;;;;;;;;;7.11;100.00;99212.27;2203424;80;20172;-58
2022/09/21 02:35:36;;;;;;;;;;;;;;;7.10;100.00;99214.50;2200630;80;20132;-57
2022/09/21 02:38:38;;;;;;;;;;;;;;;7.11;100.00;99212.27;2205084;80;20389;-58
2022/09/21 02:41:39;;;;;;;;;;;;;;;7.18;100.00;99216.79;2200363;80;20116;-58
2022/09/21 02:44:41;;;;;;;;;;;;;;;7.26;100.00;99223.86;2205301;80;20107;-58
2022/09/21 02:47:42;;;;;;;;;;;;;;;7.32;100.00;99224.06;2203985;80;20116;-58
2022/09/21 02:50:44;;;;;;;;;;;;;;;7.43;100.00;99221.86;2204064;80;20121;-57
2022/09/21 02:53:45;;;;;;;;;;;;;;;7.39;100.00;99217.67;2205677;80;20383;-57
2022/09/21 02:56:47;;;;;;;;;;;;;;;7.50;100.00;99226.34;2207065;80;20116;-58
2022/09/21 02:59:49;;;;;;;;;;;;;;;7.53;100.00;99220.55;2194123;80;20132;-58
2022/09/21 03:02:50;;;;;;;;;;;;;;;7.51;100.00;99222.36;2208571;80;20379;-58
2022/09/21 03:05:51;;;;;;;;;;;;;;;7.58;100.00;99222.50;2243414;79;20095;-58
2022/09/21 03:08:53;;;;;;;;;;;;;;;7.56;100.00;99223.50;2212312;80;20104;-58
2022/09/21 03:11:55;;;;;;;;;;;;;;;7.68;100.00;99221.66;2244308;78;20133;-58
2022/09/21 03:14:56;;;;;;;;;;;;;;;7.73;100.00;99230.16;2174846;81;20097;-57
2022/09/21 03:17:58;;;;;;;;;;;;;;;7.76;100.00;99224.80;2198852;80;20391;-57
2022/09/21 03:20:59;;;;;;;;;;;;;;;7.78;100.00;99232.09;2206727;80;20107;-58
2022/09/21 03:24:01;;;;;;;;;;;;;;;7.76;100.00;99223.95;2202541;80;20113;-58
2022/09/21 03:27:02;;;;;;;;;;;;;;;7.83;100.00;99226.69;2204977;80;20108;-58
2022/09/21 03:30:04;;;;;;;;;;;;;;;7.86;100.00;99234.83;2201382;80;20155;-58
2022/09/21 03:33:05;;;;;;;;;;;;;;;7.86;100.00;99231.78;2205093;80;20395;-58
2022/09/21 03:36:06;;;;;;;;;;;;;;;7.81;100.00;99235.03;2202937;80;20113;-57
2022/09/21 03:39:08;;;;;;;;;;;;;;;7.88;100.00;99232.55;2210457;80;20201;-57
2022/09/21 03:42:10;;;;;;;;;;;;;;;8.00;100.00;99232.93;2199278;80;20121;-57
2022/09/21 03:45:12;;;;;;;;;;;;;;;7.92;100.00;99241.11;2202862;80;20096;-58
2022/09/21 03:48:14;;;;;;;;;;;;;;;7.93;100.00;99237.13;2209829;80;20140;-56
2022/09/21 03:51:16;;;;;;;;;;;;;;;7.94;100.00;99240.14;2207679;80;20383;-56
2022/09/21 03:54:17;;;;;;;;;;;;;;;7.95;100.00;99235.28;2201359;80;20108;-58
2022/09/21 03:57:18;;;;;;;;;;;;;;;7.92;100.00;99236.73;2204962;80;20391;-57
2022/09/21 04:00:20;;;;;;;;;;;;;;;8.01;100.00;99235.47;2201357;80;20104;-57
2022/09/21 04:03:22;;;;;;;;;;;;;;;8.05;100.00;99234.42;2203499;80;20379;-58
2022/09/21 04:06:24;;;;;;;;;;;;;;;8.07;100.00;99245.64;2206037;80;20139;-58
2022/09/21 04:09:25;;;;;;;;;;;;;;;7.92;100.00;99248.48;2200703;80;20111;-58
2022/09/21 04:12:27;;;;;;;;;;;;;;;7.95;100.00;99243.59;2207726;80;20105;-58
2022/09/21 04:15:29;;;;;;;;;;;;;;;8.02;100.00;99249.41;2203016;80;20084;-58
2022/09/21 04:18:31;;;;;;;;;;;;;;;8.02;100.00;99251.55;2209053;80;20263;-57
2022/09/21 04:21:32;;;;;;;;;;;;;;;8.12;100.00;99250.22;2203925;80;20422;-57
2022/09/21 04:24:34;;;;;;;;;;;;;;;8.07;100.00;99260.02;2207283;80;20113;-58
2022/09/21 04:27:35;;;;;;;;;;;;;;;8.17;100.00;99257.02;2201526;80;20096;-57
2022/09/21 04:30:37;;;;;;;;;;;;;;;8.21;100.00;99259.41;2203001;80;20395;-58
2022/09/21 04:33:39;;;;;;;;;;;;;;;8.27;100.00;99258.30;2203464;80;20128;-58
2022/09/21 04:36:40;;;;;;;;;;;;;;;8.27;100.00;99260.44;2204004;80;20088;-58
2022/09/21 04:39:42;;;;;;;;;;;;;;;8.32;100.00;99261.09;2196881;80;20108;-58
2022/09/21 04:42:43;;;;;;;;;;;;;;;8.38;100.00;99265.67;2207201;80;20108;-58
2022/09/21 04:45:45;;;;;;;;;;;;;;;8.28;100.00;99266.06;2215698;80;20429;-58
2022/09/21 04:48:46;;;;;;;;;;;;;;;8.28;100.00;99269.15;2200139;80;20108;-59
2022/09/21 04:51:48;;;;;;;;;;;;;;;8.30;100.00;99260.77;2208281;80;20091;-58
2022/09/21 04:54:50;;;;;;;;;;;;;;;8.37;100.00;99266.58;2199154;80;20113;-58
2022/09/21 04:57:51;;;;;;;;;;;;;;;8.43;100.00;99264.98;2206065;80;20108;-57
2022/09/21 05:00:55;;;;;;;;;;;;;;;8.33;100.00;99269.77;2203634;80;20470;-57
2022/09/21 05:04:00;;;;;;;;;;;;;;;8.48;100.00;99263.89;2204062;80;20139;-57
2022/09/21 05:07:00;;;;;;;;;;;;;;;8.53;100.00;99267.60;2172860;80;20124;-58
2022/09/21 05:10:01;;;;;;;;;;;;;;;8.58;100.00;99273.48;2210661;79;20403;-58
2022/09/21 05:13:02;;;;;;;;;;;;;;;8.57;100.00;99273.55;2208776;80;20161;-58
2022/09/21 05:16:04;;;;;;;;;;;;;;;8.64;100.00;99281.50;2202378;80;20400;-57
2022/09/21 05:19:06;;;;;;;;;;;;;;;8.56;100.00;99283.17;2201545;80;20093;-58
2022/09/21 05:22:07;;;;;;;;;;;;;;;8.55;100.00;99280.16;2205065;80;20108;-57
2022/09/21 05:25:09;;;;;;;;;;;;;;;8.67;100.00;99281.36;2204696;80;20387;-57
2022/09/21 05:28:10;;;;;;;;;;;;;;;8.67;100.00;99282.20;2202861;80;20123;-57
2022/09/21 05:31:12;;;;;;;;;;;;;;;8.77;100.00;99278.70;2203613;80;20120;-57
2022/09/21 05:34:13;;;;;;;;;;;;;;;8.71;100.00;99283.39;2206514;80;20116;-57
2022/09/21 05:37:14;;;;;;;;;;;;;;;8.83;100.00;99281.50;2208313;80;20182;-58
2022/09/21 05:40:16;;;;;;;;;;;;;;;8.84;100.00;99291.05;2204264;80;20194;-56
2022/09/21 05:43:17;;;;;;;;;;;;;;;8.80;100.00;99294.73;2206776;80;20186;-56
2022/09/21 05:46:19;;;;;;;;;;;;;;;8.91;100.00;99292.46;2177901;80;20512;-56
2022/09/21 05:49:20;;;;;;;;;;;;;;;8.91;100.00;99295.55;2205212;80;20149;-57
2022/09/21 05:52:22;;;;;;;;;;;;;;;8.98;100.00;99299.11;2202955;80;20132;-57
2022/09/21 05:55:24;;;;;;;;;;;;;;;9.05;100.00;99297.50;2211819;80;20143;-58
2022/09/21 05:58:25;;;;;;;;;;;;;;;9.07;100.00;99298.29;2207616;79;20108;-58
2022/09/21 06:01:27;;;;;;;;;;;;;;;9.05;100.00;99307.97;2201170;80;20115;-58
2022/09/21 06:04:28;;;;;;;;;;;;;;;9.01;100.00;99305.50;2203965;80;20143;-58
2022/09/21 06:07:31;;;;;;;;;;;;;;;9.05;100.00;99304.04;2167806;81;22338;-58
2022/09/21 06:10:32;;;;;;;;;;;;;;;9.07;100.00;99316.14;2196776;80;20103;-58
2022/09/21 06:13:34;;;;;;;;;;;;;;;9.15;100.00;99315.33;2208340;80;20100;-58
2022/09/21 06:16:36;;;;;;;;;;;;;;;9.20;100.00;99319.02;2206758;80;20097;-57
2022/09/21 06:19:37;;;;;;;;;;;;;;;9.08;100.00;99309.99;2205626;80;20105;-57
2022/09/21 06:22:39;;;;;;;;;;;;;;;9.13;100.00;99317.14;2208359;80;20096;-58
2022/09/21 06:25:40;;;;;;;;;;;;;;;9.12;100.00;99318.09;2207283;79;20103;-57
2022/09/21 06:28:42;;;;;;;;;;;;;;;9.15;100.00;99309.22;2205702;80;20112;-58
2022/09/21 06:31:43;;;;;;;;;;;;;;;9.25;100.00;99309.20;2203697;80;20134;-58
2022/09/21 06:34:45;;;;;;;;;;;;;;;9.28;100.00;99316.90;2193988;80;20410;-58
2022/09/21 06:37:46;;;;;;;;;;;;;;;9.39;100.00;99323.38;2204811;80;20096;-57
2022/09/21 06:40:48;;;;;;;;;;;;;;;9.39;100.00;99315.05;2209235;80;20129;-58
2022/09/21 06:43:49;;;;;;;;;;;;;;;9.43;100.00;99321.01;2199530;80;20103;-58
2022/09/21 06:46:51;;;;;;;;;;;;;;;9.46;100.00;99335.26;2206526;80;20112;-57
2022/09/21 06:49:53;;;;;;;;;;;;;;;9.48;100.00;99327.72;2205150;80;20108;-57
2022/09/21 06:52:55;;;;;;;;;;;;;;;9.60;100.00;99331.50;2206575;80;20093;-57
2022/09/21 06:55:56;;;;;;;;;;;;;;;9.79;100.00;99338.46;2201066;80;20108;-58
2022/09/21 06:58:57;;;;;;;;;;;;;;;9.81;100.00;99343.15;2202255;80;20415;-58
2022/09/21 07:01:59;;;;;;;;;;;;;;;10.05;100.00;99344.53;2206703;80;20097;-58
2022/09/21 07:05:00;;;;;;;;;;;;;;;10.00;100.00;99347.03;2220841;79;20178;-58
2022/09/21 07:08:02;;;;;;;;;;;;;;;9.83;100.00;99346.56;2208904;80;20097;-58
2022/09/21 07:11:03;;;;;;;;;;;;;;;9.71;100.00;99347.55;2202056;80;20224;-58
2022/09/21 07:14:05;;;;;;;;;;;;;;;9.68;100.00;99350.77;2206124;80;20103;-57
2022/09/21 07:17:07;;;;;;;;;;;;;;;9.85;100.00;99356.02;2205028;80;20153;-58
2022/09/21 07:20:08;;;;;;;;;;;;;;;9.89;100.00;99360.19;2202194;80;20119;-58
2022/09/21 07:23:10;;;;;;;;;;;;;;;9.84;100.00;99350.41;2205307;80;20131;-57
2022/09/21 07:26:11;;;;;;;;;;;;;;;10.00;100.00;99354.89;2209073;80;20096;-57
2022/09/21 07:29:13;;;;;;;;;;;;;;;9.98;100.00;99358.04;2205700;80;20394;-57
2022/09/21 07:32:14;;;;;;;;;;;;;;;10.02;100.00;99359.11;2205386;80;20112;-57
2022/09/21 07:35:16;;;;;;;;;;;;;;;9.96;100.00;99365.98;2210633;80;20165;-56
2022/09/21 07:38:17;;;;;;;;;;;;;;;10.05;100.00;99373.84;2212819;80;20113;-57
2022/09/21 07:41:18;;;;;;;;;;;;;;;10.06;100.00;99368.52;2210857;80;20103;-58
2022/09/21 07:44:21;;;;;;;;;;;;;;;9.99;100.00;99365.81;2207826;80;20135;-57
2022/09/21 07:47:22;;;;;;;;;;;;;;;10.06;100.00;99378.16;2223007;80;20096;-57
2022/09/21 07:50:24;;;;;;;;;;;;;;;10.04;100.00;99371.69;2206455;80;20143;-57
2022/09/21 07:53:26;;;;;;;;;;;;;;;9.96;100.00;99365.98;2216648;80;20099;-59
2022/09/21 07:56:27;;;;;;;;;;;;;;;10.01;100.00;99370.54;2177681;80;20132;-58
2022/09/21 07:59:31;;;;;;;;;;;;;;;10.06;100.00;99378.16;2212810;80;20088;-59
2022/09/21 08:02:32;;;;;;;;;;;;;;;10.10;100.00;99380.16;2180724;81;20399;-58
2022/09/21 08:05:33;;;;;;;;;;;;;;;10.09;100.00;99382.41;2216816;80;20194;-57
2022/09/21 08:08:35;;;;;;;;;;;;;;;10.22;100.00;99373.83;2211252;80;20206;-58
2022/09/21 08:11:36;;;;;;;;;;;;;;;10.29;100.00;99374.85;2207763;80;20217;-58
2022/09/21 08:14:38;;;;;;;;;;;;;;;10.30;100.00;99379.14;2208386;80;20113;-58
2022/09/21 08:17:40;;;;;;;;;;;;;;;10.29;100.00;99384.03;2206074;80;20380;-58
2022/09/21 08:20:41;;;;;;;;;;;;;;;10.40;100.00;99374.70;2200456;80;20108;-58
2022/09/21 08:23:43;;;;;;;;;;;;;;;10.44;100.00;99381.94;2211621;80;20185;-58
2022/09/21 08:26:45;;;;;;;;;;;;;;;10.49;100.00;99379.10;2194002;80;20113;-58
2022/09/21 08:29:46;;;;;;;;;;;;;;;10.51;100.00;99384.63;2209157;80;20373;-58
2022/09/21 08:32:48;;;;;;;;;;;;;;;10.57;100.00;99386.95;2206729;80;20186;-58
2022/09/21 08:35:49;;;;;;;;;;;;;;;10.58;100.00;99388.63;2202123;80;20093;-59
2022/09/21 08:38:51;;;;;;;;;;;;;;;10.65;100.00;99390.95;2206166;80;20120;-58
2022/09/21 08:41:52;;;;;;;;;;;;;;;10.73;100.00;99397.94;2210367;79;20421;-58
2022/09/21 08:44:54;;;;;;;;;;;;;;;10.72;100.00;99389.23;2209725;80;20158;-58
2022/09/21 08:47:56;;;;;;;;;;;;;;;10.66;100.00;99397.88;2205807;80;20105;-58
2022/09/21 08:50:57;;;;;;;;;;;;;;;10.57;100.00;99404.00;2197557;80;20104;-58
2022/09/21 08:53:59;;;;;;;;;;;;;;;10.58;100.00;99395.66;2202642;80;20096;-59
2022/09/21 08:57:01;;;;;;;;;;;;;;;10.67;100.00;99397.79;2207144;80;20113;-58
2022/09/21 09:00:02;;;;;;;;;;;;;;;11.01;100.00;99391.24;2195162;80;20093;-58
2022/09/21 09:03:06;;;;;;;;;;;;;;;11.37;100.00;99393.63;2205465;80;20187;-59
2022/09/21 09:06:08;;;;;;;;;;;;;;;11.71;100.00;99394.83;2199631;80;20108;-58
2022/09/21 09:09:09;;;;;;;;;;;;;;;11.72;100.00;99390.83;2205600;80;20490;-58
2022/09/21 09:12:11;;;;;;;;;;;;;;;11.96;100.00;99385.95;2204560;80;20411;-58
2022/09/21 09:15:12;;;;;;;;;;;;;;;12.11;100.00;99388.17;2202923;80;20395;-58
2022/09/21 09:18:14;;;;;;;;;;;;;;;12.02;100.00;99382.59;2207304;80;20131;-58
2022/09/21 09:21:15;;;;;;;;;;;;;;;12.05;100.00;99380.66;2206368;80;20132;-58
2022/09/21 09:24:17;;;;;;;;;;;;;;;12.09;100.00;99386.09;2199333;80;20177;-58
2022/09/21 09:27:18;;;;;;;;;;;;;;;12.00;100.00;99385.80;2201879;80;20149;-58
2022/09/21 09:30:19;;;;;;;;;;;;;;;11.79;100.00;99389.54;2206684;80;20173;-57
2022/09/21 09:33:21;;;;;;;;;;;;;;;11.66;100.00;99389.84;2203902;80;20096;-57
2022/09/21 09:36:23;;;;;;;;;;;;;;;11.73;100.00;99382.46;2204449;80;20414;-57
2022/09/21 09:39:25;;;;;;;;;;;;;;;11.69;100.00;99389.66;2205260;80;20097;-57
2022/09/21 09:42:26;;;;;;;;;;;;;;;11.74;100.00;99377.59;2202306;80;20115;-57
2022/09/21 09:45:27;;;;;;;;;;;;;;;11.89;100.00;99385.06;2205667;80;20135;-56
2022/09/21 09:48:29;;;;;;;;;;;;;;;12.00;100.00;99381.38;2200836;80;20107;-58
2022/09/21 09:51:34;;;;;;;;;;;;;;;12.16;100.00;99383.95;2210534;80;20382;-58
2022/09/21 09:54:33;;;;;;;;;;;;;;;12.51;100.00;99377.05;2172753;80;20132;-59
2022/09/21 09:57:35;;;;;;;;;;;;;;;12.74;100.00;99383.58;2206831;80;20109;-59
2022/09/21 10:00:37;;;;;;;;;;;;;;;12.94;100.00;99378.86;2208005;80;20121;-58
2022/09/21 10:03:39;;;;;;;;;;;;;;;13.28;100.00;99372.32;2206718;80;20097;-58
2022/09/21 10:06:41;;;;;;;;;;;;;;;13.53;100.00;99366.82;2201484;80;20096;-59
2022/09/21 10:09:42;;;;;;;;;;;;;;;13.36;100.00;99369.25;2185178;80;20108;-58
2022/09/21 10:12:44;;;;;;;;;;;;;;;13.06;100.00;99362.30;2207000;80;20132;-58
2022/09/21 10:15:45;;;;;;;;;;;;;;;12.82;100.00;99358.09;2205268;80;20096;-59
2022/09/21 10:18:47;;;;;;;;;;;;;;;12.54;100.00;99365.05;2204051;80;20143;-59
2022/09/21 10:21:48;;;;;;;;;;;;;;;12.64;100.00;99353.47;2205688;80;20132;-59
2022/09/21 10:24:50;;;;;;;;;;;;;;;12.85;100.00;99353.11;2206509;80;20101;-58
2022/09/21 10:27:51;;;;;;;;;;;;;;;13.10;100.00;99358.99;2197690;80;20437;-58
2022/09/21 10:30:53;;;;;;;;;;;;;;;13.53;100.00;99348.38;2206261;80;20144;-57
2022/09/21 10:33:54;;;;;;;;;;;;;;;14.10;100.00;99351.22;2204029;80;20384;-59
2022/09/21 10:36:56;;;;;;;;;;;;;;;14.43;100.00;99353.00;2207792;80;20197;-58
2022/09/21 10:39:57;;;;;;;;;;;;;;;15.00;100.00;99341.16;2210026;80;20190;-58
2022/09/21 10:42:59;;;;;;;;;;;;;;;15.47;100.00;99346.11;2199342;80;20144;-58
2022/09/21 10:46:00;;;;;;;;;;;;;;;15.31;100.00;99342.41;2202160;80;20124;-59
2022/09/21 10:49:02;;;;;;;;;;;;;;;14.87;100.00;99343.34;2204262;80;20391;-57
2022/09/21 10:52:03;;;;;;;;;;;;;;;14.42;100.00;99348.67;2206414;80;20109;-59
2022/09/21 10:55:05;;;;;;;;;;;;;;;13.96;100.00;99357.41;2207995;80;20466;-58
2022/09/21 10:58:06;;;;;;;;;;;;;;;13.71;100.00;99353.42;2199110;80;20104;-58
2022/09/21 11:01:08;;;;;;;;;;;;;;;13.70;100.00;99353.87;2210246;80;20113;-58
2022/09/21 11:04:10;;;;;;;;;;;;;;;13.96;100.00;99356.09;2211858;80;20391;-58
2022/09/21 11:07:11;;;;;;;;;;;;;;;14.15;100.00;99351.77;2202284;80;20092;-58
2022/09/21 11:10:13;;;;;;;;;;;;;;;14.12;100.00;99357.26;2193553;80;20096;-59
2022/09/21 11:13:15;;;;;;;;;;;;;;;14.10;100.00;99344.63;2202197;80;20104;-58
2022/09/21 11:16:17;;;;;;;;;;;;;;;14.29;100.00;99340.26;2203583;80;20112;-59
2022/09/21 11:19:18;;;;;;;;;;;;;;;14.30;100.00;99339.32;2204527;80;20108;-58
2022/09/21 11:22:20;;;;;;;;;;;;;;;14.33;100.00;99335.14;2206472;80;20085;-58
2022/09/21 11:25:22;;;;;;;;;;;;;;;14.33;100.00;99336.95;2195006;79;20112;-58
2022/09/21 11:28:23;;;;;;;;;;;;;;;14.31;100.00;99339.70;2203943;80;20151;-58
2022/09/21 11:31:25;;;;;;;;;;;;;;;14.28;100.00;99331.13;2204397;80;20093;-58
2022/09/21 11:34:27;;;;;;;;;;;;;;;14.33;100.00;99329.04;2208822;80;20108;-59
2022/09/21 11:37:28;;;;;;;;;;;;;;;14.46;100.00;99339.59;2212576;80;20407;-58
2022/09/21 11:40:30;;;;;;;;;;;;;;;14.59;100.00;99335.63;2211433;80;20126;-58
2022/09/21 11:43:31;;;;;;;;;;;;;;;14.93;100.00;99329.31;2208808;80;20384;-59
2022/09/21 11:46:33;;;;;;;;;;;;;;;15.18;100.00;99332.38;2199261;79;20109;-58
2022/09/21 11:49:34;;;;;;;;;;;;;;;15.16;100.00;99328.53;2199555;80;20106;-59
2022/09/21 11:52:36;;;;;;;;;;;;;;;15.39;100.00;99320.73;2206311;80;20108;-59
2022/09/21 11:55:38;;;;;;;;;;;;;;;15.45;100.00;99323.41;2203714;80;20182;-58
2022/09/21 11:58:40;;;;;;;;;;;;;;;15.42;100.00;99339.01;2205749;80;20717;-58
2022/09/21 12:01:42;;;;;;;;;;;;;;;15.24;100.00;99319.58;2195721;80;20108;-58
2022/09/21 12:04:44;;;;;;;;;;;;;;;15.29;100.00;99329.80;2202466;80;20096;-58
2022/09/21 12:07:47;;;;;;;;;;;;;;;15.30;100.00;99329.31;2211709;80;20416;-59
2022/09/21 12:10:48;;;;;;;;;;;;;;;15.14;100.00;99350.27;2204105;80;20384;-59
2022/09/21 12:13:50;;;;;;;;;;;;;;;15.31;100.00;99342.41;2200332;80;20151;-58
2022/09/21 12:16:53;;;;;;;;;;;;;;;15.38;100.00;99321.68;2205315;79;20104;-59
2022/09/21 12:19:55;;;;;;;;;;;;;;;15.52;100.00;99329.44;2213918;80;20388;-59
2022/09/21 12:22:56;;;;;;;;;;;;;;;15.58;100.00;99330.30;2202867;80;20124;-58
2022/09/21 12:25:58;;;;;;;;;;;;;;;15.42;100.00;99342.97;2206902;79;20099;-58
2022/09/21 12:28:59;;;;;;;;;;;;;;;15.19;100.00;99324.83;2205225;80;20124;-58
2022/09/21 12:32:01;;;;;;;;;;;;;;;15.20;100.00;99315.92;2202324;80;20131;-58
2022/09/21 12:38:42;;;;;;;;;;;;;;;15.00;100.00;99320.86;2203576;80;20119;-58
2022/09/21 12:41:45;;;;;;;;;;;;;;;14.77;100.00;99325.59;2204369;80;20383;-58
2022/09/21 12:47:50;;;;;;;;;;;;;;;13.85;100.00;99373.95;2185270;80;20097;-57
2022/09/21 12:50:53;;;;;;;;;;;;;;;13.50;100.00;99367.02;2201294;80;20105;-58
2022/09/21 12:53:55;;;;;;;;;;;;;;;13.31;100.00;99376.07;2168782;80;20113;-59
2022/09/21 12:56:56;;;;;;;;;;;;;;;13.04;100.00;99397.57;2206455;80;20089;-59
2022/09/21 12:59:59;;;;;;;;;;;;;;;12.82;100.00;99378.67;2203671;80;20209;-58
2022/09/21 13:03:02;;;;;;;;;;;;;;;12.58;100.00;99382.80;2205557;80;20120;-58
2022/09/21 13:06:05;;;;;;;;;;;;;;;12.54;100.00;99383.92;2206637;80;20427;-58
2022/09/21 13:09:07;;;;;;;;;;;;;;;12.48;100.00;99386.00;2207479;80;20124;-58
2022/09/21 13:12:08;;;;;;;;;;;;;;;12.58;100.00;99386.75;2206233;80;20120;-57
2022/09/21 13:15:10;;;;;;;;;;;;;;;12.68;100.00;99375.20;2207418;80;20097;-57
2022/09/21 13:18:14;;;;;;;;;;;;;;;12.73;100.00;99376.62;2210126;80;20100;-57
2022/09/21 13:21:15;;;;;;;;;;;;;;;12.66;100.00;99373.98;2180401;80;20116;-58
2022/09/21 13:24:17;;;;;;;;;;;;;;;12.77;100.00;99362.33;2204905;80;20209;-57
2022/09/21 13:27:19;;;;;;;;;;;;;;;12.87;100.00;99360.44;2204145;80;20088;-57
2022/09/21 13:30:21;;;;;;;;;;;;;;;13.00;100.00;99355.63;2208933;80;20097;-57
2022/09/21 13:33:24;;;;;;;;;;;;;;;13.20;100.00;99352.68;2206245;80;20112;-57
2022/09/21 13:36:25;;;;;;;;;;;;;;;13.42;100.00;99348.22;2194464;80;20108;-58
2022/09/21 13:39:27;;;;;;;;;;;;;;;13.59;100.00;99344.05;2206359;80;20413;-58
2022/09/21 13:42:28;;;;;;;;;;;;;;;13.81;100.00;99336.88;2205037;79;20113;-59
2022/09/21 13:45:30;;;;;;;;;;;;;;;14.43;100.00;99338.49;2202710;80;20107;-58
2022/09/21 13:48:33;;;;;;;;;;;;;;;14.82;100.00;99330.92;2207658;80;20092;-59
2022/09/21 13:51:34;;;;;;;;;;;;;;;14.97;100.00;99343.53;2209277;80;20104;-57
2022/09/21 13:54:36;;;;;;;;;;;;;;;14.90;100.00;99335.69;2205868;80;20097;-57
2022/09/21 13:57:37;;;;;;;;;;;;;;;14.89;100.00;99336.63;2203997;80;20407;-58
2022/09/21 14:00:39;;;;;;;;;;;;;;;15.13;100.00;99333.17;2210075;80;20100;-57
2022/09/21 14:03:41;;;;;;;;;;;;;;;14.94;100.00;99331.88;2214490;80;20108;-57
2022/09/21 14:06:43;;;;;;;;;;;;;;;14.80;100.00;99330.69;2203669;80;20450;-57
2022/09/21 14:09:45;;;;;;;;;;;;;;;15.03;100.00;99325.92;2204766;80;20110;-57
2022/09/21 14:12:46;;;;;;;;;;;;;;;15.33;100.00;99326.45;2210967;80;20107;-57
2022/09/21 14:15:48;;;;;;;;;;;;;;;15.60;100.00;99328.86;2194968;80;20133;-58
2022/09/21 14:18:50;;;;;;;;;;;;;;;15.59;100.00;99325.39;2203316;80;20217;-58
2022/09/21 14:21:52;;;;;;;;;;;;;;;15.17;100.00;99330.22;2205237;80;20112;-59
2022/09/21 14:24:54;;;;;;;;;;;;;;;14.69;100.00;99338.02;2208853;80;20108;-58
2022/09/21 14:27:56;;;;;;;;;;;;;;;14.29;100.00;99340.75;2200542;80;20103;-58
2022/09/21 14:30:57;;;;;;;;;;;;;;;13.98;100.00;99346.79;2205852;80;20114;-58
2022/09/21 14:33:59;;;;;;;;;;;;;;;13.66;100.00;99347.97;2200476;80;20096;-58
2022/09/21 14:37:00;;;;;;;;;;;;;;;13.49;100.00;99349.55;2207137;80;20387;-59
2022/09/21 14:40:02;;;;;;;;;;;;;;;13.31;100.00;99348.41;2203912;80;20101;-58
2022/09/21 14:43:04;;;;;;;;;;;;;;;13.26;100.00;99355.78;2205580;80;20120;-59
2022/09/21 14:46:06;;;;;;;;;;;;;;;13.10;100.00;99358.99;2213817;80;20431;-58
2022/09/21 14:49:07;;;;;;;;;;;;;;;12.92;100.00;99355.26;2204418;80;20092;-57
2022/09/21 14:52:10;;;;;;;;;;;;;;;12.88;100.00;99350.29;2201875;80;20116;-58
2022/09/21 14:55:14;;;;;;;;;;;;;;;12.75;100.00;99360.25;2203967;80;20391;-58
2022/09/21 14:58:14;;;;;;;;;;;;;;;12.64;100.00;99360.05;2173345;80;20151;-59
2022/09/21 15:01:16;;;;;;;;;;;;;;;12.64;100.00;99360.92;2203242;80;20108;-58
2022/09/21 15:04:17;;;;;;;;;;;;;;;12.70;100.00;99358.38;2206468;80;20104;-57
2022/09/21 15:13:25;;;;;;;;;;;;;;;12.82;100.00;99348.88;2181146;80;20097;-59
2022/09/21 15:16:27;;;;;;;;;;;;;;;12.81;100.00;99340.59;2206758;80;20081;-58
2022/09/21 15:19:29;;;;;;;;;;;;;;;12.61;100.00;99339.20;2203639;80;20104;-57
2022/09/21 15:22:30;;;;;;;;;;;;;;;12.52;100.00;99343.72;2206226;80;20113;-57
2022/09/21 15:25:32;;;;;;;;;;;;;;;12.43;100.00;99345.13;2204517;80;20396;-57
2022/09/21 15:28:34;;;;;;;;;;;;;;;12.32;100.00;99346.23;2209351;80;20132;-57
2022/09/21 15:31:36;;;;;;;;;;;;;;;12.17;100.00;99354.09;2217859;80;20107;-57
2022/09/21 15:34:37;;;;;;;;;;;;;;;12.00;100.00;99357.72;2203863;80;20124;-58
2022/09/21 15:37:39;;;;;;;;;;;;;;;11.85;100.00;99354.17;2219026;80;20105;-58
2022/09/21 15:40:40;;;;;;;;;;;;;;;11.76;100.00;99354.69;2204744;80;20387;-58
2022/09/21 15:43:46;;;;;;;;;;;;;;;11.62;100.00;99347.58;2208159;80;20411;-58
2022/09/21 15:46:45;;;;;;;;;;;;;;;11.61;100.00;99348.06;2183784;80;20095;-58
2022/09/21 15:49:47;;;;;;;;;;;;;;;11.56;100.00;99345.31;2206081;80;20419;-58